Main page
METAR-TAF:

METAR-TAF

Airports :

South Bend International Airport

South Bend, Indiana, United States

latitude: 41-42-32N, longitude: 086-19-07W, elevation: 800 ft

Current weather observation

The report was made 1 hour and 4 minutes ago, at 02:54 UTC
Wind 6 mph from the North
Temperature 63°F
Humidity 77%
Pressure 30.07 in. Hg
Visibility: 10 miles
Clear sky

METAR: KSBN 180254Z 36005KT 10SM CLR 17/13 A3007 RMK AO2 SLP179 T01720133 51020

Time: 23:58 (03:58 UTC)

Forecast

The report was made 4 hours and 38 minutes ago, at 23:20 UTC
Forecast valid from 18 at 00 UTC to 18 at 24 UTC
Wind 7 mph from the North
Visibility: 6 miles
Clear sky
From 18 at 1300 UTC
Wind 12 mph from the North
Visibility: 6 miles
Few clouds at a height of 4000 ft

TAF: KSBN 172320Z 1800/1824 35006KT P6SM SKC FM181300 36010KT P6SM FEW040

Weather observations and forecasts of more than 4000 airports (METAR and TAF reports).

The available stations are represented by yellow and red dots on the map.

Hover mouse over dot to see the name of the station.

Then click to see weather observations and forecasts.

To change the map : click on the green buttons with a black cross to zoom in, on the green button with a dash to zoom out, or on the green arrows for adjacent maps.


METAR-TAF: